sensor_id;sensor_type;location;lat;lon;timestamp;temperature;humidity
26909;DHT22;14477;51.038;4.588;2023-12-04T00:00:37;4.60;99.90
26909;DHT22;14477;51.038;4.588;2023-12-04T00:03:06;4.60;99.90
26909;DHT22;14477;51.038;4.588;2023-12-04T00:05:32;4.60;99.90
26909;DHT22;14477;51.038;4.588;2023-12-04T00:07:58;4.60;99.90
26909;DHT22;14477;51.038;4.588;2023-12-04T00:10:24;4.60;99.90
26909;DHT22;14477;51.038;4.588;2023-12-04T00:12:49;4.60;99.90
26909;DHT22;14477;51.038;4.588;2023-12-04T00:15:16;4.10;99.90
26909;DHT22;14477;51.038;4.588;2023-12-04T00:17:42;4.60;99.90
26909;DHT22;14477;51.038;4.588;2023-12-04T00:20:09;4.60;99.90
26909;DHT22;14477;51.038;4.588;2023-12-04T00:22:36;4.60;99.90
26909;DHT22;14477;51.038;4.588;2023-12-04T00:25:03;4.70;99.90
26909;DHT22;14477;51.038;4.588;2023-12-04T00:27:29;4.70;99.90
26909;DHT22;14477;51.038;4.588;2023-12-04T00:29:55;4.70;99.90
26909;DHT22;14477;51.038;4.588;2023-12-04T00:32:21;4.70;99.90
26909;DHT22;14477;51.038;4.588;2023-12-04T00:34:47;4.70;99.90
26909;DHT22;14477;51.038;4.588;2023-12-04T00:37:12;4.60;99.90
26909;DHT22;14477;51.038;4.588;2023-12-04T00:39:38;4.60;99.90
26909;DHT22;14477;51.038;4.588;2023-12-04T00:42:05;4.60;99.90
26909;DHT22;14477;51.038;4.588;2023-12-04T00:44:31;4.60;99.90
26909;DHT22;14477;51.038;4.588;2023-12-04T00:46:57;4.60;99.90
26909;DHT22;14477;51.038;4.588;2023-12-04T00:49:23;4.60;99.90
26909;DHT22;14477;51.038;4.588;2023-12-04T00:51:49;4.60;99.90
26909;DHT22;14477;51.038;4.588;2023-12-04T00:54:15;4.60;99.90
26909;DHT22;14477;51.038;4.588;2023-12-04T00:56:41;4.00;99.90
26909;DHT22;14477;51.038;4.588;2023-12-04T00:59:10;4.50;99.90
26909;DHT22;14477;51.038;4.588;2023-12-04T01:01:39;4.60;99.90
26909;DHT22;14477;51.038;4.588;2023-12-04T01:04:04;4.50;99.90
26909;DHT22;14477;51.038;4.588;2023-12-04T01:06:30;3.30;99.90
26909;DHT22;14477;51.038;4.588;2023-12-04T01:08:56;4.50;99.90
26909;DHT22;14477;51.038;4.588;2023-12-04T01:11:22;4.50;99.90
26909;DHT22;14477;51.038;4.588;2023-12-04T01:13:49;7.50;99.90
26909;DHT22;14477;51.038;4.588;2023-12-04T01:16:15;4.50;99.90
26909;DHT22;14477;51.038;4.588;2023-12-04T01:18:41;4.60;99.90
26909;DHT22;14477;51.038;4.588;2023-12-04T01:21:08;4.60;99.90
26909;DHT22;14477;51.038;4.588;2023-12-04T01:23:34;4.50;99.90
26909;DHT22;14477;51.038;4.588;2023-12-04T01:26:01;4.50;99.90
26909;DHT22;14477;51.038;4.588;2023-12-04T01:28:27;4.50;99.90
26909;DHT22;14477;51.038;4.588;2023-12-04T01:30:52;4.50;99.90
26909;DHT22;14477;51.038;4.588;2023-12-04T01:33:18;4.50;99.90
26909;DHT22;14477;51.038;4.588;2023-12-04T01:35:44;4.50;99.90
26909;DHT22;14477;51.038;4.588;2023-12-04T01:38:09;4.50;99.90
26909;DHT22;14477;51.038;4.588;2023-12-04T01:40:35;4.50;99.90
26909;DHT22;14477;51.038;4.588;2023-12-04T01:43:01;4.50;99.90
26909;DHT22;14477;51.038;4.588;2023-12-04T01:45:27;4.50;99.90
26909;DHT22;14477;51.038;4.588;2023-12-04T01:47:53;4.50;99.90
26909;DHT22;14477;51.038;4.588;2023-12-04T01:50:20;4.60;99.90
26909;DHT22;14477;51.038;4.588;2023-12-04T01:52:46;4.50;99.90
26909;DHT22;14477;51.038;4.588;2023-12-04T01:55:12;4.50;99.90
26909;DHT22;14477;51.038;4.588;2023-12-04T01:57:38;4.50;99.90
26909;DHT22;14477;51.038;4.588;2023-12-04T02:00:05;4.50;99.90
26909;DHT22;14477;51.038;4.588;2023-12-04T02:02:37;4.10;99.90
26909;DHT22;14477;51.038;4.588;2023-12-04T02:05:05;4.50;99.90
26909;DHT22;14477;51.038;4.588;2023-12-04T02:07:32;4.60;99.90
26909;DHT22;14477;51.038;4.588;2023-12-04T02:09:58;4.60;99.90
26909;DHT22;14477;51.038;4.588;2023-12-04T02:12:24;4.50;99.90
26909;DHT22;14477;51.038;4.588;2023-12-04T02:14:51;4.60;99.90
26909;DHT22;14477;51.038;4.588;2023-12-04T02:17:17;4.60;99.90
26909;DHT22;14477;51.038;4.588;2023-12-04T02:19:44;4.50;99.90
26909;DHT22;14477;51.038;4.588;2023-12-04T02:22:10;4.60;99.90
26909;DHT22;14477;51.038;4.588;2023-12-04T02:24:36;4.50;99.90
26909;DHT22;14477;51.038;4.588;2023-12-04T02:27:12;4.60;99.90
26909;DHT22;14477;51.038;4.588;2023-12-04T02:29:47;4.60;99.90
26909;DHT22;14477;51.038;4.588;2023-12-04T02:32:18;4.60;99.90
26909;DHT22;14477;51.038;4.588;2023-12-04T02:34:46;4.60;99.90
26909;DHT22;14477;51.038;4.588;2023-12-04T02:37:14;4.60;99.90
26909;DHT22;14477;51.038;4.588;2023-12-04T02:39:40;4.60;99.90
26909;DHT22;14477;51.038;4.588;2023-12-04T02:42:06;4.60;99.90
26909;DHT22;14477;51.038;4.588;2023-12-04T02:44:32;4.60;99.90
26909;DHT22;14477;51.038;4.588;2023-12-04T02:46:58;4.60;99.90
26909;DHT22;14477;51.038;4.588;2023-12-04T02:49:23;4.60;99.90
26909;DHT22;14477;51.038;4.588;2023-12-04T02:51:49;6.20;99.90
26909;DHT22;14477;51.038;4.588;2023-12-04T02:54:15;4.60;99.90
26909;DHT22;14477;51.038;4.588;2023-12-04T02:56:40;3.60;99.90
26909;DHT22;14477;51.038;4.588;2023-12-04T02:59:06;4.50;99.90
26909;DHT22;14477;51.038;4.588;2023-12-04T03:01:32;4.60;99.90
26909;DHT22;14477;51.038;4.588;2023-12-04T03:03:57;4.60;99.90
26909;DHT22;14477;51.038;4.588;2023-12-04T03:06:23;4.60;99.90
26909;DHT22;14477;51.038;4.588;2023-12-04T03:08:49;4.70;99.90
26909;DHT22;14477;51.038;4.588;2023-12-04T03:11:14;4.60;99.90
26909;DHT22;14477;51.038;4.588;2023-12-04T03:13:40;4.70;99.90
26909;DHT22;14477;51.038;4.588;2023-12-04T03:16:14;4.60;99.90
26909;DHT22;14477;51.038;4.588;2023-12-04T03:18:40;4.60;99.90
26909;DHT22;14477;51.038;4.588;2023-12-04T03:21:06;4.60;99.90
26909;DHT22;14477;51.038;4.588;2023-12-04T03:23:32;4.70;99.90
26909;DHT22;14477;51.038;4.588;2023-12-04T03:25:58;4.70;99.90
26909;DHT22;14477;51.038;4.588;2023-12-04T03:28:23;4.70;99.90
26909;DHT22;14477;51.038;4.588;2023-12-04T03:30:49;4.70;99.90
26909;DHT22;14477;51.038;4.588;2023-12-04T03:33:15;4.70;99.90
26909;DHT22;14477;51.038;4.588;2023-12-04T03:35:40;4.70;99.90
26909;DHT22;14477;51.038;4.588;2023-12-04T03:38:06;4.70;99.90
26909;DHT22;14477;51.038;4.588;2023-12-04T03:40:32;4.60;99.90
26909;DHT22;14477;51.038;4.588;2023-12-04T03:42:57;4.70;99.90
26909;DHT22;14477;51.038;4.588;2023-12-04T03:45:23;4.70;99.90
26909;DHT22;14477;51.038;4.588;2023-12-04T03:47:49;4.70;99.90
26909;DHT22;14477;51.038;4.588;2023-12-04T03:50:15;4.70;99.90
26909;DHT22;14477;51.038;4.588;2023-12-04T03:52:41;4.70;99.90
26909;DHT22;14477;51.038;4.588;2023-12-04T03:55:08;4.70;99.90
26909;DHT22;14477;51.038;4.588;2023-12-04T03:57:33;4.70;99.90
26909;DHT22;14477;51.038;4.588;2023-12-04T03:59:59;4.70;99.90
26909;DHT22;14477;51.038;4.588;2023-12-04T04:02:25;4.70;99.90
26909;DHT22;14477;51.038;4.588;2023-12-04T04:04:51;4.70;99.90
26909;DHT22;14477;51.038;4.588;2023-12-04T04:07:17;4.70;99.90
26909;DHT22;14477;51.038;4.588;2023-12-04T04:09:43;4.70;99.90
26909;DHT22;14477;51.038;4.588;2023-12-04T04:12:09;4.70;99.90
26909;DHT22;14477;51.038;4.588;2023-12-04T04:14:35;4.70;99.90
26909;DHT22;14477;51.038;4.588;2023-12-04T04:17:00;4.70;99.90
26909;DHT22;14477;51.038;4.588;2023-12-04T04:19:26;4.70;99.90
26909;DHT22;14477;51.038;4.588;2023-12-04T04:21:52;4.80;99.90
26909;DHT22;14477;51.038;4.588;2023-12-04T04:24:18;4.80;99.90
26909;DHT22;14477;51.038;4.588;2023-12-04T04:26:43;4.80;99.90
26909;DHT22;14477;51.038;4.588;2023-12-04T04:29:09;4.80;99.90
26909;DHT22;14477;51.038;4.588;2023-12-04T04:31:35;4.80;99.90
26909;DHT22;14477;51.038;4.588;2023-12-04T04:34:01;4.80;99.90
26909;DHT22;14477;51.038;4.588;2023-12-04T04:36:26;4.80;99.90
26909;DHT22;14477;51.038;4.588;2023-12-04T04:38:52;4.80;99.90
26909;DHT22;14477;51.038;4.588;2023-12-04T04:41:18;4.80;99.90
26909;DHT22;14477;51.038;4.588;2023-12-04T04:43:43;4.90;99.90
26909;DHT22;14477;51.038;4.588;2023-12-04T04:46:09;4.80;99.90
26909;DHT22;14477;51.038;4.588;2023-12-04T04:48:35;4.90;99.90
26909;DHT22;14477;51.038;4.588;2023-12-04T04:51:01;4.90;99.90
26909;DHT22;14477;51.038;4.588;2023-12-04T04:53:26;4.90;99.90
26909;DHT22;14477;51.038;4.588;2023-12-04T04:55:52;4.90;99.90
26909;DHT22;14477;51.038;4.588;2023-12-04T04:58:18;4.90;99.90
26909;DHT22;14477;51.038;4.588;2023-12-04T05:00:44;4.90;99.90
26909;DHT22;14477;51.038;4.588;2023-12-04T05:03:10;4.90;99.90
26909;DHT22;14477;51.038;4.588;2023-12-04T05:05:36;4.90;99.90
26909;DHT22;14477;51.038;4.588;2023-12-04T05:08:02;4.80;99.90
26909;DHT22;14477;51.038;4.588;2023-12-04T05:10:27;4.90;99.90
26909;DHT22;14477;51.038;4.588;2023-12-04T05:12:53;4.90;99.90
26909;DHT22;14477;51.038;4.588;2023-12-04T05:15:19;5.00;99.90
26909;DHT22;14477;51.038;4.588;2023-12-04T05:17:44;4.90;99.90
26909;DHT22;14477;51.038;4.588;2023-12-04T05:20:10;4.90;99.90
26909;DHT22;14477;51.038;4.588;2023-12-04T05:22:36;4.90;99.90
26909;DHT22;14477;51.038;4.588;2023-12-04T05:25:02;5.00;99.90
26909;DHT22;14477;51.038;4.588;2023-12-04T05:27:27;5.00;99.90
26909;DHT22;14477;51.038;4.588;2023-12-04T05:29:53;5.00;99.90
26909;DHT22;14477;51.038;4.588;2023-12-04T05:32:19;5.00;99.90
26909;DHT22;14477;51.038;4.588;2023-12-04T05:34:45;5.00;99.90
26909;DHT22;14477;51.038;4.588;2023-12-04T05:39:36;5.00;99.90
26909;DHT22;14477;51.038;4.588;2023-12-04T05:42:02;5.00;99.90
26909;DHT22;14477;51.038;4.588;2023-12-04T05:44:28;5.00;99.90
26909;DHT22;14477;51.038;4.588;2023-12-04T05:46:54;5.00;99.90
26909;DHT22;14477;51.038;4.588;2023-12-04T05:49:20;5.00;99.90
26909;DHT22;14477;51.038;4.588;2023-12-04T05:51:46;4.10;99.90
26909;DHT22;14477;51.038;4.588;2023-12-04T05:54:11;5.10;99.90
26909;DHT22;14477;51.038;4.588;2023-12-04T05:56:37;5.00;99.90
26909;DHT22;14477;51.038;4.588;2023-12-04T05:59:03;5.10;99.90
26909;DHT22;14477;51.038;4.588;2023-12-04T06:01:29;5.00;99.90
26909;DHT22;14477;51.038;4.588;2023-12-04T06:03:55;7.10;99.90
26909;DHT22;14477;51.038;4.588;2023-12-04T06:06:20;5.00;99.90
26909;DHT22;14477;51.038;4.588;2023-12-04T06:08:46;5.10;99.90
26909;DHT22;14477;51.038;4.588;2023-12-04T06:11:12;5.10;99.90
26909;DHT22;14477;51.038;4.588;2023-12-04T06:13:38;5.10;99.90
26909;DHT22;14477;51.038;4.588;2023-12-04T06:16:04;5.10;99.90
26909;DHT22;14477;51.038;4.588;2023-12-04T06:18:30;5.10;99.90
26909;DHT22;14477;51.038;4.588;2023-12-04T06:20:56;5.10;99.90
26909;DHT22;14477;51.038;4.588;2023-12-04T06:23:22;5.10;99.90
26909;DHT22;14477;51.038;4.588;2023-12-04T06:25:48;5.10;99.90
26909;DHT22;14477;51.038;4.588;2023-12-04T06:28:14;5.10;99.90
26909;DHT22;14477;51.038;4.588;2023-12-04T06:30:40;5.10;99.90
26909;DHT22;14477;51.038;4.588;2023-12-04T06:33:07;5.10;99.90
26909;DHT22;14477;51.038;4.588;2023-12-04T06:35:32;5.10;99.90
26909;DHT22;14477;51.038;4.588;2023-12-04T06:38:05;5.10;99.90
26909;DHT22;14477;51.038;4.588;2023-12-04T06:40:31;5.00;99.90
26909;DHT22;14477;51.038;4.588;2023-12-04T06:42:57;7.10;99.90
26909;DHT22;14477;51.038;4.588;2023-12-04T06:45:24;5.10;99.90
26909;DHT22;14477;51.038;4.588;2023-12-04T06:47:51;5.10;99.90
26909;DHT22;14477;51.038;4.588;2023-12-04T06:50:17;5.10;99.90
26909;DHT22;14477;51.038;4.588;2023-12-04T06:52:43;5.10;99.90
26909;DHT22;14477;51.038;4.588;2023-12-04T06:55:08;5.20;99.90
26909;DHT22;14477;51.038;4.588;2023-12-04T06:57:34;5.20;99.90
26909;DHT22;14477;51.038;4.588;2023-12-04T07:00:03;5.20;99.90
26909;DHT22;14477;51.038;4.588;2023-12-04T07:02:29;5.20;99.90
26909;DHT22;14477;51.038;4.588;2023-12-04T07:04:55;5.20;99.90
26909;DHT22;14477;51.038;4.588;2023-12-04T07:07:21;5.20;99.90
26909;DHT22;14477;51.038;4.588;2023-12-04T07:09:47;5.20;99.90
26909;DHT22;14477;51.038;4.588;2023-12-04T07:12:13;5.20;99.90
26909;DHT22;14477;51.038;4.588;2023-12-04T07:14:39;5.20;99.90
26909;DHT22;14477;51.038;4.588;2023-12-04T07:17:04;5.40;99.90
26909;DHT22;14477;51.038;4.588;2023-12-04T07:19:30;5.30;99.90
26909;DHT22;14477;51.038;4.588;2023-12-04T07:21:56;5.30;99.90
26909;DHT22;14477;51.038;4.588;2023-12-04T07:24:21;5.30;99.90
26909;DHT22;14477;51.038;4.588;2023-12-04T07:26:48;5.30;99.90
26909;DHT22;14477;51.038;4.588;2023-12-04T07:29:13;4.00;99.90
26909;DHT22;14477;51.038;4.588;2023-12-04T07:31:41;5.40;99.90
26909;DHT22;14477;51.038;4.588;2023-12-04T07:34:06;5.40;99.90
26909;DHT22;14477;51.038;4.588;2023-12-04T07:36:32;5.40;99.90
26909;DHT22;14477;51.038;4.588;2023-12-04T07:38:58;5.40;99.90
26909;DHT22;14477;51.038;4.588;2023-12-04T07:41:24;5.30;99.90
26909;DHT22;14477;51.038;4.588;2023-12-04T07:43:50;5.40;99.90
26909;DHT22;14477;51.038;4.588;2023-12-04T07:46:16;5.40;99.90
26909;DHT22;14477;51.038;4.588;2023-12-04T07:48:42;5.40;99.90
26909;DHT22;14477;51.038;4.588;2023-12-04T07:51:09;5.40;99.90
26909;DHT22;14477;51.038;4.588;2023-12-04T07:53:35;5.40;99.90
26909;DHT22;14477;51.038;4.588;2023-12-04T07:56:01;5.40;99.90
26909;DHT22;14477;51.038;4.588;2023-12-04T07:58:30;5.40;99.90
26909;DHT22;14477;51.038;4.588;2023-12-04T08:01:00;5.40;99.90
26909;DHT22;14477;51.038;4.588;2023-12-04T08:03:25;5.40;99.90
26909;DHT22;14477;51.038;4.588;2023-12-04T08:05:51;5.40;99.90
26909;DHT22;14477;51.038;4.588;2023-12-04T08:08:17;5.50;99.90
26909;DHT22;14477;51.038;4.588;2023-12-04T08:10:43;5.50;99.90
26909;DHT22;14477;51.038;4.588;2023-12-04T08:13:09;5.40;99.90
26909;DHT22;14477;51.038;4.588;2023-12-04T08:15:34;4.20;99.90
26909;DHT22;14477;51.038;4.588;2023-12-04T08:18:00;5.50;99.90
26909;DHT22;14477;51.038;4.588;2023-12-04T08:20:26;5.40;99.90
26909;DHT22;14477;51.038;4.588;2023-12-04T08:22:52;5.50;99.90
26909;DHT22;14477;51.038;4.588;2023-12-04T08:25:21;5.50;99.90
26909;DHT22;14477;51.038;4.588;2023-12-04T08:27:46;5.50;99.90
26909;DHT22;14477;51.038;4.588;2023-12-04T08:30:13;5.60;99.90
26909;DHT22;14477;51.038;4.588;2023-12-04T08:32:39;5.60;99.90
26909;DHT22;14477;51.038;4.588;2023-12-04T08:35:05;5.60;99.90
26909;DHT22;14477;51.038;4.588;2023-12-04T08:37:31;5.60;99.90
26909;DHT22;14477;51.038;4.588;2023-12-04T08:39:57;5.60;99.90
26909;DHT22;14477;51.038;4.588;2023-12-04T08:42:23;5.60;99.90
26909;DHT22;14477;51.038;4.588;2023-12-04T08:44:49;5.70;99.90
26909;DHT22;14477;51.038;4.588;2023-12-04T08:47:14;5.70;99.90
26909;DHT22;14477;51.038;4.588;2023-12-04T08:49:40;5.70;99.90
26909;DHT22;14477;51.038;4.588;2023-12-04T08:52:07;5.70;99.90
26909;DHT22;14477;51.038;4.588;2023-12-04T08:54:33;5.70;99.90
26909;DHT22;14477;51.038;4.588;2023-12-04T08:56:59;5.70;99.90
26909;DHT22;14477;51.038;4.588;2023-12-04T08:59:25;5.80;99.90
26909;DHT22;14477;51.038;4.588;2023-12-04T09:01:51;5.80;99.90
26909;DHT22;14477;51.038;4.588;2023-12-04T09:04:16;5.80;99.90
26909;DHT22;14477;51.038;4.588;2023-12-04T09:06:43;5.80;99.90
26909;DHT22;14477;51.038;4.588;2023-12-04T09:09:08;5.80;99.90
26909;DHT22;14477;51.038;4.588;2023-12-04T09:11:34;5.80;99.90
26909;DHT22;14477;51.038;4.588;2023-12-04T09:14:00;5.80;99.90
26909;DHT22;14477;51.038;4.588;2023-12-04T09:16:26;5.80;99.90
26909;DHT22;14477;51.038;4.588;2023-12-04T09:18:51;5.80;99.90
26909;DHT22;14477;51.038;4.588;2023-12-04T09:21:19;5.90;99.90
26909;DHT22;14477;51.038;4.588;2023-12-04T09:23:44;5.90;99.90
26909;DHT22;14477;51.038;4.588;2023-12-04T09:26:15;5.90;99.90
26909;DHT22;14477;51.038;4.588;2023-12-04T09:28:41;5.90;99.90
26909;DHT22;14477;51.038;4.588;2023-12-04T09:31:08;5.90;99.90
26909;DHT22;14477;51.038;4.588;2023-12-04T09:33:34;5.90;99.90
26909;DHT22;14477;51.038;4.588;2023-12-04T09:36:02;5.90;99.90
26909;DHT22;14477;51.038;4.588;2023-12-04T09:38:28;5.90;99.90
26909;DHT22;14477;51.038;4.588;2023-12-04T09:40:59;5.90;99.90
26909;DHT22;14477;51.038;4.588;2023-12-04T09:43:32;5.90;99.90
26909;DHT22;14477;51.038;4.588;2023-12-04T09:45:58;5.90;99.90
26909;DHT22;14477;51.038;4.588;2023-12-04T09:48:26;6.00;99.90
26909;DHT22;14477;51.038;4.588;2023-12-04T09:50:53;5.80;99.90
26909;DHT22;14477;51.038;4.588;2023-12-04T09:53:20;5.80;99.90
26909;DHT22;14477;51.038;4.588;2023-12-04T09:55:50;5.80;99.90
26909;DHT22;14477;51.038;4.588;2023-12-04T09:58:19;5.80;99.90
26909;DHT22;14477;51.038;4.588;2023-12-04T10:00:46;5.80;99.90
26909;DHT22;14477;51.038;4.588;2023-12-04T10:03:13;5.80;99.90
26909;DHT22;14477;51.038;4.588;2023-12-04T10:05:45;5.80;99.90
26909;DHT22;14477;51.038;4.588;2023-12-04T10:08:12;5.70;99.90
26909;DHT22;14477;51.038;4.588;2023-12-04T10:10:38;4.00;99.90
26909;DHT22;14477;51.038;4.588;2023-12-04T10:13:05;5.70;99.90
26909;DHT22;14477;51.038;4.588;2023-12-04T10:15:32;5.70;99.90
26909;DHT22;14477;51.038;4.588;2023-12-04T10:17:58;5.70;99.90
26909;DHT22;14477;51.038;4.588;2023-12-04T10:20:24;5.60;99.90
26909;DHT22;14477;51.038;4.588;2023-12-04T10:22:58;5.60;99.90
26909;DHT22;14477;51.038;4.588;2023-12-04T10:25:33;5.70;99.90
26909;DHT22;14477;51.038;4.588;2023-12-04T10:28:10;5.60;99.90
26909;DHT22;14477;51.038;4.588;2023-12-04T10:30:36;5.60;99.90
26909;DHT22;14477;51.038;4.588;2023-12-04T10:33:05;5.70;99.90
26909;DHT22;14477;51.038;4.588;2023-12-04T10:35:35;5.70;99.90
26909;DHT22;14477;51.038;4.588;2023-12-04T10:38:07;5.80;99.90
26909;DHT22;14477;51.038;4.588;2023-12-04T10:40:36;5.80;99.90
26909;DHT22;14477;51.038;4.588;2023-12-04T10:43:22;5.70;99.90
26909;DHT22;14477;51.038;4.588;2023-12-04T10:45:50;5.70;99.90
26909;DHT22;14477;51.038;4.588;2023-12-04T10:48:18;5.70;99.90
26909;DHT22;14477;51.038;4.588;2023-12-04T10:50:45;5.80;99.90
26909;DHT22;14477;51.038;4.588;2023-12-04T10:53:14;5.80;99.90
26909;DHT22;14477;51.038;4.588;2023-12-04T10:55:40;5.80;99.90
26909;DHT22;14477;51.038;4.588;2023-12-04T10:58:08;5.80;99.90
26909;DHT22;14477;51.038;4.588;2023-12-04T11:00:36;5.80;99.90
26909;DHT22;14477;51.038;4.588;2023-12-04T11:03:27;5.90;99.90
26909;DHT22;14477;51.038;4.588;2023-12-04T11:06:00;5.90;99.90
26909;DHT22;14477;51.038;4.588;2023-12-04T11:08:29;6.00;99.90
26909;DHT22;14477;51.038;4.588;2023-12-04T11:11:18;6.00;99.90
26909;DHT22;14477;51.038;4.588;2023-12-04T11:13:50;6.00;99.90
26909;DHT22;14477;51.038;4.588;2023-12-04T11:19:20;6.10;99.90
26909;DHT22;14477;51.038;4.588;2023-12-04T11:21:50;6.10;99.90
26909;DHT22;14477;51.038;4.588;2023-12-04T11:24:18;6.10;99.90
26909;DHT22;14477;51.038;4.588;2023-12-04T11:26:44;6.20;99.90
26909;DHT22;14477;51.038;4.588;2023-12-04T11:29:12;6.10;99.90
26909;DHT22;14477;51.038;4.588;2023-12-04T11:31:39;6.10;99.90
26909;DHT22;14477;51.038;4.588;2023-12-04T11:34:06;6.10;99.90
26909;DHT22;14477;51.038;4.588;2023-12-04T11:36:33;6.10;99.90
26909;DHT22;14477;51.038;4.588;2023-12-04T11:39:00;6.10;99.90
26909;DHT22;14477;51.038;4.588;2023-12-04T11:41:26;6.10;99.90
26909;DHT22;14477;51.038;4.588;2023-12-04T11:43:53;6.10;99.90
26909;DHT22;14477;51.038;4.588;2023-12-04T11:46:24;6.10;99.90
26909;DHT22;14477;51.038;4.588;2023-12-04T11:48:54;6.10;99.90
26909;DHT22;14477;51.038;4.588;2023-12-04T11:54:08;6.10;99.90
26909;DHT22;14477;51.038;4.588;2023-12-04T11:56:33;6.10;99.90
26909;DHT22;14477;51.038;4.588;2023-12-04T11:59:07;6.10;99.90
26909;DHT22;14477;51.038;4.588;2023-12-04T12:01:37;6.10;99.90
26909;DHT22;14477;51.038;4.588;2023-12-04T12:04:06;6.20;99.90
26909;DHT22;14477;51.038;4.588;2023-12-04T12:06:32;6.10;99.90
26909;DHT22;14477;51.038;4.588;2023-12-04T12:08:58;6.20;99.90
26909;DHT22;14477;51.038;4.588;2023-12-04T12:11:24;6.10;99.90
26909;DHT22;14477;51.038;4.588;2023-12-04T12:13:53;6.10;99.90
26909;DHT22;14477;51.038;4.588;2023-12-04T12:16:19;6.10;99.90
26909;DHT22;14477;51.038;4.588;2023-12-04T12:18:44;6.10;99.90
26909;DHT22;14477;51.038;4.588;2023-12-04T12:21:11;6.10;99.90
26909;DHT22;14477;51.038;4.588;2023-12-04T12:23:36;6.10;99.90
26909;DHT22;14477;51.038;4.588;2023-12-04T12:26:02;6.10;99.90
26909;DHT22;14477;51.038;4.588;2023-12-04T12:28:28;6.10;99.90
26909;DHT22;14477;51.038;4.588;2023-12-04T12:30:55;6.10;99.90
26909;DHT22;14477;51.038;4.588;2023-12-04T12:33:21;6.10;99.90
26909;DHT22;14477;51.038;4.588;2023-12-04T12:35:48;6.10;99.90
26909;DHT22;14477;51.038;4.588;2023-12-04T12:38:15;6.10;99.90
26909;DHT22;14477;51.038;4.588;2023-12-04T12:40:41;6.20;99.90
26909;DHT22;14477;51.038;4.588;2023-12-04T12:43:08;6.20;99.90
26909;DHT22;14477;51.038;4.588;2023-12-04T12:45:44;6.20;99.90
26909;DHT22;14477;51.038;4.588;2023-12-04T12:48:13;6.20;99.90
26909;DHT22;14477;51.038;4.588;2023-12-04T12:50:43;6.20;99.90
26909;DHT22;14477;51.038;4.588;2023-12-04T12:53:11;6.20;99.90
26909;DHT22;14477;51.038;4.588;2023-12-04T12:55:43;6.20;99.90
26909;DHT22;14477;51.038;4.588;2023-12-04T12:58:12;6.20;99.90
26909;DHT22;14477;51.038;4.588;2023-12-04T13:00:40;6.30;99.90
26909;DHT22;14477;51.038;4.588;2023-12-04T13:03:18;6.30;99.90
26909;DHT22;14477;51.038;4.588;2023-12-04T13:05:44;6.30;99.90
26909;DHT22;14477;51.038;4.588;2023-12-04T13:08:10;6.30;99.90
26909;DHT22;14477;51.038;4.588;2023-12-04T13:10:40;6.20;99.90
26909;DHT22;14477;51.038;4.588;2023-12-04T13:13:13;6.20;99.90
26909;DHT22;14477;51.038;4.588;2023-12-04T13:15:40;6.10;99.90
26909;DHT22;14477;51.038;4.588;2023-12-04T13:18:07;6.10;99.90
26909;DHT22;14477;51.038;4.588;2023-12-04T13:20:32;6.10;99.90
26909;DHT22;14477;51.038;4.588;2023-12-04T13:22:59;6.00;99.90
26909;DHT22;14477;51.038;4.588;2023-12-04T13:25:25;6.00;99.90
26909;DHT22;14477;51.038;4.588;2023-12-04T13:27:50;6.00;99.90
26909;DHT22;14477;51.038;4.588;2023-12-04T13:30:16;6.00;99.90
26909;DHT22;14477;51.038;4.588;2023-12-04T13:32:42;5.90;99.90
26909;DHT22;14477;51.038;4.588;2023-12-04T13:35:09;5.90;99.90
26909;DHT22;14477;51.038;4.588;2023-12-04T13:37:34;5.90;99.90
26909;DHT22;14477;51.038;4.588;2023-12-04T13:40:05;5.90;99.90
26909;DHT22;14477;51.038;4.588;2023-12-04T13:42:38;5.90;99.90
26909;DHT22;14477;51.038;4.588;2023-12-04T13:45:23;5.90;99.90
26909;DHT22;14477;51.038;4.588;2023-12-04T13:47:49;5.90;99.90
26909;DHT22;14477;51.038;4.588;2023-12-04T13:50:15;5.90;99.90
26909;DHT22;14477;51.038;4.588;2023-12-04T13:52:41;5.90;99.90
26909;DHT22;14477;51.038;4.588;2023-12-04T13:55:09;5.90;99.90
26909;DHT22;14477;51.038;4.588;2023-12-04T13:57:46;5.90;99.90
26909;DHT22;14477;51.038;4.588;2023-12-04T14:00:41;5.90;99.90
26909;DHT22;14477;51.038;4.588;2023-12-04T14:03:06;5.90;99.90
26909;DHT22;14477;51.038;4.588;2023-12-04T14:05:33;5.90;99.90
26909;DHT22;14477;51.038;4.588;2023-12-04T14:08:02;5.90;99.90
26909;DHT22;14477;51.038;4.588;2023-12-04T14:10:29;5.90;99.90
26909;DHT22;14477;51.038;4.588;2023-12-04T14:12:55;5.90;99.90
26909;DHT22;14477;51.038;4.588;2023-12-04T14:15:21;5.80;99.90
26909;DHT22;14477;51.038;4.588;2023-12-04T14:17:47;5.80;99.90
26909;DHT22;14477;51.038;4.588;2023-12-04T14:20:12;5.90;99.90
26909;DHT22;14477;51.038;4.588;2023-12-04T14:22:45;5.80;99.90
26909;DHT22;14477;51.038;4.588;2023-12-04T14:25:14;5.80;99.90
26909;DHT22;14477;51.038;4.588;2023-12-04T14:27:39;5.80;99.90
26909;DHT22;14477;51.038;4.588;2023-12-04T14:30:10;5.80;99.90
26909;DHT22;14477;51.038;4.588;2023-12-04T14:32:36;5.80;99.90
26909;DHT22;14477;51.038;4.588;2023-12-04T14:35:06;5.90;99.90
26909;DHT22;14477;51.038;4.588;2023-12-04T14:37:33;5.90;99.90
26909;DHT22;14477;51.038;4.588;2023-12-04T14:39:59;5.80;99.90
26909;DHT22;14477;51.038;4.588;2023-12-04T14:42:25;5.90;99.90
26909;DHT22;14477;51.038;4.588;2023-12-04T14:44:50;5.80;99.90
26909;DHT22;14477;51.038;4.588;2023-12-04T14:47:16;5.90;99.90
26909;DHT22;14477;51.038;4.588;2023-12-04T14:49:42;5.90;99.90
26909;DHT22;14477;51.038;4.588;2023-12-04T14:52:08;5.90;99.90
26909;DHT22;14477;51.038;4.588;2023-12-04T14:54:33;5.90;99.90
26909;DHT22;14477;51.038;4.588;2023-12-04T14:57:17;5.90;99.90
26909;DHT22;14477;51.038;4.588;2023-12-04T15:00:02;5.90;99.90
26909;DHT22;14477;51.038;4.588;2023-12-04T15:02:46;5.90;99.90
26909;DHT22;14477;51.038;4.588;2023-12-04T15:05:32;5.90;99.90
26909;DHT22;14477;51.038;4.588;2023-12-04T15:07:59;5.90;99.90
26909;DHT22;14477;51.038;4.588;2023-12-04T15:10:42;6.00;99.90
26909;DHT22;14477;51.038;4.588;2023-12-04T15:13:20;5.90;99.90
26909;DHT22;14477;51.038;4.588;2023-12-04T15:15:51;5.90;99.90
26909;DHT22;14477;51.038;4.588;2023-12-04T15:18:26;5.90;99.90
26909;DHT22;14477;51.038;4.588;2023-12-04T15:21:03;5.80;99.90
26909;DHT22;14477;51.038;4.588;2023-12-04T15:23:30;5.90;99.90
26909;DHT22;14477;51.038;4.588;2023-12-04T15:25:55;5.90;99.90
26909;DHT22;14477;51.038;4.588;2023-12-04T15:28:21;5.90;99.90
26909;DHT22;14477;51.038;4.588;2023-12-04T15:30:48;5.90;99.90
26909;DHT22;14477;51.038;4.588;2023-12-04T15:33:14;5.90;99.90
26909;DHT22;14477;51.038;4.588;2023-12-04T15:35:40;5.90;99.90
26909;DHT22;14477;51.038;4.588;2023-12-04T15:38:07;6.00;99.90
26909;DHT22;14477;51.038;4.588;2023-12-04T15:40:33;6.00;99.90
26909;DHT22;14477;51.038;4.588;2023-12-04T15:43:00;5.90;99.90
26909;DHT22;14477;51.038;4.588;2023-12-04T15:45:26;6.00;99.90
26909;DHT22;14477;51.038;4.588;2023-12-04T15:47:52;6.00;99.90
26909;DHT22;14477;51.038;4.588;2023-12-04T15:50:18;6.00;99.90
26909;DHT22;14477;51.038;4.588;2023-12-04T15:52:44;6.00;99.90